createdAt,value
2022-10-29T02:59:49.554Z,97357.97
2022-10-29T03:02:17.540Z,97354.34
2022-10-29T03:04:45.501Z,97352.72
2022-10-29T03:07:13.556Z,97351.09
2022-10-29T03:09:41.445Z,97347.66
2022-10-29T03:12:09.704Z,97346.03
2022-10-29T03:14:37.640Z,97343.00
2022-10-29T03:17:06.817Z,97339.75
2022-10-29T03:19:34.741Z,97345.00
2022-10-29T03:22:02.564Z,97343.81
2022-10-29T03:24:30.440Z,97342.59
2022-10-29T03:26:58.285Z,97343.63
2022-10-29T03:29:26.171Z,97340.16
2022-10-29T03:31:54.138Z,97335.72
2022-10-29T03:34:23.797Z,97332.09
2022-10-29T03:36:51.709Z,97338.75
2022-10-29T03:39:19.692Z,97348.69
2022-10-29T03:41:47.484Z,97353.19
2022-10-29T03:44:15.371Z,97356.03
2022-10-29T03:46:43.289Z,97360.31
2022-10-29T03:49:11.197Z,97356.44
2022-10-29T03:51:40.710Z,97361.06
2022-10-29T03:54:08.602Z,97358.44
2022-10-29T03:56:38.685Z,97361.69
2022-10-29T04:01:44.162Z,97361.91
2022-10-29T04:04:15.556Z,97365.38
2022-10-29T04:06:50.294Z,97366.19
2022-10-29T04:09:21.344Z,97365.16
2022-10-29T04:11:56.817Z,97364.97
2022-10-29T04:14:27.823Z,97362.34
2022-10-29T04:17:01.418Z,97362.78
2022-10-29T04:19:49.048Z,97370.66
2022-10-29T04:28:43.828Z,97370.66
2022-10-29T04:31:23.231Z,97378.56
2022-10-29T04:40:28.503Z,97372.72
2022-10-29T04:43:06.789Z,97364.81
2022-10-29T04:45:47.447Z,97356.13
2022-10-29T04:48:33.961Z,97356.94
2022-10-29T04:51:08.178Z,97363.19
2022-10-29T04:53:46.079Z,97365.00
2022-10-29T04:57:05.753Z,97359.75
2022-10-29T05:05:22.821Z,97364.22
2022-10-29T05:07:50.557Z,97371.56
2022-10-29T05:10:19.029Z,97368.75
2022-10-29T05:12:47.050Z,97365.28
2022-10-29T05:15:17.244Z,97353.34
2022-10-29T05:17:45.295Z,97365.50
2022-10-29T05:20:13.129Z,97362.25
2022-10-29T05:22:42.303Z,97358.59
2022-10-29T05:25:18.848Z,97360.44
2022-10-29T05:27:48.433Z,97363.84
2022-10-29T05:30:17.451Z,97368.31
2022-10-29T05:32:46.148Z,97356.19
2022-10-29T05:35:14.632Z,97359.97
2022-10-29T05:37:44.393Z,97356.72
2022-10-29T05:40:16.001Z,97362.59
2022-10-29T05:42:47.409Z,97359.63
2022-10-29T05:45:20.328Z,97360.22
2022-10-29T05:47:49.678Z,97359.03
2022-10-29T05:50:21.621Z,97356.22
2022-10-29T05:52:59.648Z,97354.56
2022-10-29T05:55:40.088Z,97361.84
2022-10-29T05:58:13.387Z,97362.88
2022-10-29T06:00:51.416Z,97355.97
2022-10-29T06:03:25.049Z,97359.44
2022-10-29T06:09:11.830Z,97366.13
2022-10-29T06:11:40.089Z,97365.09
2022-10-29T06:14:07.776Z,97368.34
2022-10-29T06:16:35.691Z,97363.88
2022-10-29T06:19:03.473Z,97365.72
2022-10-29T06:21:30.968Z,97370.34
2022-10-29T06:23:58.452Z,97369.56
2022-10-29T06:26:27.335Z,97369.75
2022-10-29T06:28:54.908Z,97359.44
2022-10-29T06:31:22.494Z,97366.84
2022-10-29T06:33:50.009Z,97358.97
2022-10-29T06:36:17.492Z,97366.50
2022-10-29T06:38:45.046Z,97371.13
2022-10-29T06:41:12.589Z,97367.84
2022-10-29T06:43:41.545Z,97361.59
2022-10-29T06:46:09.431Z,97355.97
2022-10-29T06:48:36.936Z,97361.03
2022-10-29T06:51:04.568Z,97363.44
2022-10-29T06:53:32.074Z,97354.91
2022-10-29T06:56:00.170Z,97360.19
2022-10-29T06:58:27.732Z,97363.81
2022-10-29T07:03:29.019Z,97364.00
2022-10-29T07:05:57.382Z,97360.38
2022-10-29T07:08:25.215Z,97357.72
2022-10-29T07:13:34.297Z,97364.47
2022-10-29T07:16:03.601Z,97362.69
2022-10-29T07:18:32.843Z,97364.34
2022-10-29T07:21:02.660Z,97363.38
2022-10-29T07:26:09.466Z,97369.06
2022-10-29T07:28:45.679Z,97368.09
2022-10-29T07:31:32.678Z,97373.78
2022-10-29T07:34:00.426Z,97372.19
2022-10-29T07:36:28.066Z,97363.69
2022-10-29T07:39:17.299Z,97369.19
2022-10-29T07:44:23.772Z,97369.22
2022-10-29T07:46:53.236Z,97369.03
2022-10-29T07:49:21.491Z,97366.16
2022-10-29T07:51:50.057Z,97367.00
2022-10-29T08:04:28.561Z,97368.03
2022-10-29T08:06:56.405Z,97365.94
2022-10-29T08:09:24.108Z,97365.66
2022-10-29T08:11:51.759Z,97366.19
2022-10-29T08:14:22.627Z,97374.78
2022-10-29T08:16:50.532Z,97366.94
2022-10-29T08:19:18.134Z,97372.09
2022-10-29T08:32:52.869Z,97370.72
2022-10-29T08:35:21.065Z,97369.00
2022-10-29T08:37:49.248Z,97370.88
2022-10-29T08:48:39.770Z,97376.31
2022-10-29T08:51:19.922Z,97372.91
2022-10-29T08:54:17.030Z,97372.03
2022-10-29T08:56:49.618Z,97378.66
2022-10-29T08:59:21.499Z,97385.69
2022-10-29T09:01:55.057Z,97384.78
2022-10-29T09:04:32.249Z,97381.31
2022-10-29T09:07:25.462Z,97386.38
2022-10-29T09:10:14.083Z,97380.38
2022-10-29T09:13:10.737Z,97375.25
2022-10-29T09:16:17.801Z,97377.34
2022-10-29T09:27:08.183Z,97385.06
2022-10-29T09:47:10.058Z,97360.75
2022-10-29T09:49:52.389Z,97360.88
2022-10-29T09:52:23.535Z,97354.19
2022-10-29T09:54:53.144Z,97351.22
2022-10-29T09:57:23.391Z,97355.25
2022-10-29T09:59:54.955Z,97354.88
2022-10-29T10:02:29.623Z,97354.03
2022-10-29T10:05:02.226Z,97353.09
2022-10-29T10:07:29.822Z,97342.97
2022-10-29T10:09:59.789Z,97346.47
2022-10-29T10:12:29.091Z,97337.59
2022-10-29T10:15:04.683Z,97345.03
2022-10-29T10:17:55.906Z,97338.41
2022-10-29T10:20:29.968Z,97339.97
2022-10-29T10:22:57.950Z,97327.81
2022-10-29T10:25:33.963Z,97332.44
2022-10-29T10:28:05.127Z,97330.81
2022-10-29T10:30:32.685Z,97323.41
2022-10-29T10:35:51.261Z,97324.00
2022-10-29T10:38:19.235Z,97325.91
2022-10-29T10:40:55.713Z,97328.16
2022-10-29T10:43:26.358Z,97317.88
2022-10-29T10:45:57.847Z,97314.63
2022-10-29T10:48:33.360Z,97312.75
2022-10-29T10:51:24.416Z,97314.13
2022-10-29T10:53:52.640Z,97307.47
2022-10-29T10:56:22.386Z,97318.41
2022-10-29T10:59:02.702Z,97308.25
2022-10-29T11:01:36.057Z,97300.97
2022-10-29T11:04:12.741Z,97297.78
2022-10-29T11:06:42.684Z,97296.19
2022-10-29T11:09:16.504Z,97299.06
2022-10-29T11:11:46.445Z,97302.22
2022-10-29T11:14:19.044Z,97303.53
2022-10-29T11:16:49.794Z,97297.94
2022-10-29T11:19:24.131Z,97295.66
2022-10-29T11:22:03.261Z,97297.41
2022-10-29T11:24:40.502Z,97303.09
2022-10-29T11:27:18.961Z,97306.91
2022-10-29T11:29:53.091Z,97296.03
2022-10-29T11:32:24.779Z,97301.53
2022-10-29T11:35:04.105Z,97295.22
2022-10-29T11:37:37.047Z,97290.41
2022-10-29T11:40:10.967Z,97283.88
2022-10-29T11:42:39.237Z,97283.88
2022-10-29T11:45:13.469Z,97278.44
2022-10-29T11:47:59.890Z,97274.63
2022-10-29T11:50:39.992Z,97275.50
2022-10-29T11:53:22.343Z,97270.84
2022-10-29T11:56:01.822Z,97265.34
2022-10-29T11:58:38.186Z,97270.84
2022-10-29T12:01:16.763Z,97257.03
2022-10-29T12:04:02.482Z,97253.91
2022-10-29T12:06:40.314Z,97242.88
2022-10-29T12:09:36.759Z,97245.34
2022-10-29T12:12:12.795Z,97230.78
2022-10-29T12:14:45.418Z,97238.75
2022-10-29T12:17:17.422Z,97231.63
2022-10-29T12:19:51.578Z,97222.19
2022-10-29T12:22:29.251Z,97226.00
2022-10-29T12:25:12.547Z,97221.91
2022-10-29T12:27:46.859Z,97227.41
2022-10-29T12:30:18.063Z,97217.28
2022-10-29T12:32:53.862Z,97214.69
2022-10-29T12:35:28.799Z,97208.50
2022-10-29T12:38:17.229Z,97201.91
2022-10-29T12:40:47.068Z,97199.50
2022-10-29T12:43:20.972Z,97197.09
2022-10-29T12:48:53.133Z,97190.63
2022-10-29T12:51:25.351Z,97187.47
2022-10-29T12:54:13.939Z,97185.03
2022-10-29T12:56:45.009Z,97178.88
2022-10-29T12:59:45.855Z,97170.66
2022-10-29T13:02:26.036Z,97174.78
2022-10-29T13:05:16.699Z,97173.75
2022-10-29T13:08:19.643Z,97169.91
2022-10-29T13:10:54.198Z,97165.25
2022-10-29T13:13:38.356Z,97169.63
2022-10-29T13:16:14.414Z,97170.25
2022-10-29T13:18:56.625Z,97160.75
2022-10-29T13:21:56.217Z,97160.16
2022-10-29T13:24:24.554Z,97160.94
2022-10-29T13:27:02.436Z,97164.41
2022-10-29T13:29:44.244Z,97159.78
2022-10-29T13:32:29.973Z,97166.22
2022-10-29T13:34:59.260Z,97157.81
2022-10-29T13:38:16.799Z,97160.66
2022-10-29T13:41:13.172Z,97155.97
2022-10-29T13:43:44.645Z,97154.22
2022-10-29T13:46:34.517Z,97151.06
2022-10-29T13:49:07.886Z,97145.22
2022-10-29T13:51:43.772Z,97150.19
2022-10-29T13:54:19.771Z,97148.44
2022-10-29T13:56:51.691Z,97141.81
2022-10-29T13:59:24.014Z,97131.88
2022-10-29T14:02:04.044Z,97134.50
2022-10-29T14:04:37.780Z,97134.63
2022-10-29T14:07:12.654Z,97132.06
2022-10-29T14:09:45.050Z,97135.94
2022-10-29T14:12:18.399Z,97132.28
2022-10-29T14:14:55.834Z,97126.22
2022-10-29T14:17:23.368Z,97127.44
2022-10-29T14:19:52.565Z,97129.94
2022-10-29T14:22:36.335Z,97130.03
2022-10-29T14:25:20.336Z,97124.75
2022-10-29T14:27:47.918Z,97117.31
2022-10-29T14:30:20.654Z,97124.38
2022-10-29T14:32:48.263Z,97118.81
2022-10-29T14:35:17.525Z,97119.22
2022-10-29T14:37:47.749Z,97112.28
2022-10-29T14:40:20.538Z,97111.28
2022-10-29T14:42:53.715Z,97114.31
2022-10-29T14:45:26.160Z,97107.72
2022-10-29T14:47:56.277Z,97108.84
2022-10-29T14:50:26.055Z,97114.53
2022-10-29T14:52:57.051Z,97117.78
2022-10-29T14:55:28.151Z,97117.59
2022-10-29T14:58:05.052Z,97115.50
2022-10-29T15:00:37.181Z,97114.47
2022-10-29T15:03:06.890Z,97109.72
2022-10-29T15:05:36.224Z,97116.13
2022-10-29T15:12:02.146Z,97106.28
2022-10-29T15:25:23.315Z,97106.00
2022-10-29T15:27:52.531Z,97103.03
2022-10-29T15:30:21.668Z,97098.75
2022-10-29T15:32:50.074Z,97095.75
2022-10-29T15:35:21.154Z,97108.53
2022-10-29T15:37:51.580Z,97089.81
2022-10-29T15:40:25.019Z,97096.19
2022-10-29T15:42:53.770Z,97102.28
2022-10-29T15:45:26.869Z,97101.97
2022-10-29T15:47:59.276Z,97103.00
2022-10-29T15:50:35.337Z,97098.63
2022-10-29T15:53:05.954Z,97098.56
2022-10-29T15:55:37.702Z,97100.63
2022-10-29T15:58:08.098Z,97101.59
2022-10-29T16:04:23.708Z,97117.47
2022-10-29T16:06:51.612Z,97120.63
2022-10-29T16:09:21.819Z,97120.56
2022-10-29T16:23:10.745Z,97125.56
2022-10-29T16:25:39.369Z,97121.75
2022-10-29T16:28:07.971Z,97119.53
2022-10-29T16:39:08.530Z,97120.25
2022-10-29T16:41:54.932Z,97125.22
2022-10-29T16:50:30.770Z,97115.03
2022-10-29T16:53:11.756Z,97118.13
2022-10-29T16:56:09.967Z,97128.69
2022-10-29T16:59:01.393Z,97123.31
2022-10-29T17:01:38.335Z,97120.56
2022-10-29T17:04:19.537Z,97120.28
2022-10-29T17:07:01.093Z,97126.31
2022-10-29T17:09:40.956Z,97122.22
2022-10-29T17:12:17.753Z,97130.88
2022-10-29T17:14:59.090Z,97119.13
2022-10-29T17:17:39.967Z,97113.19
2022-10-29T17:20:28.174Z,97118.44
2022-10-29T17:23:00.859Z,97122.06
2022-10-29T17:25:32.571Z,97121.25
2022-10-29T17:28:10.347Z,97124.31
2022-10-29T17:30:47.187Z,97126.06
2022-10-29T17:33:23.569Z,97128.66
2022-10-29T17:36:06.598Z,97122.78
2022-10-29T17:38:38.019Z,97126.16
2022-10-29T17:41:11.639Z,97122.34
2022-10-29T17:43:46.703Z,97127.34
2022-10-29T17:46:28.787Z,97128.06
2022-10-29T17:49:00.568Z,97124.25
2022-10-29T17:51:33.786Z,97128.19
2022-10-29T17:54:04.553Z,97129.72
2022-10-29T17:56:42.551Z,97127.56
2022-10-29T17:59:20.541Z,97132.28
2022-10-29T18:01:52.488Z,97126.63
2022-10-29T18:04:35.967Z,97129.75
2022-10-29T18:07:07.103Z,97131.03
2022-10-29T18:09:37.863Z,97122.50
2022-10-29T18:12:18.225Z,97121.16
2022-10-29T18:14:52.625Z,97123.22
2022-10-29T18:17:23.041Z,97120.00
2022-10-29T18:19:56.722Z,97127.38
2022-10-29T18:22:30.907Z,97117.22
2022-10-29T18:25:05.828Z,97123.81
2022-10-29T18:27:42.243Z,97125.09
2022-10-29T18:30:23.552Z,97124.75
2022-10-29T18:32:55.747Z,97120.75
2022-10-29T18:35:28.601Z,97112.47
2022-10-29T18:37:58.992Z,97113.50
2022-10-29T18:43:24.193Z,97117.44
2022-10-29T18:46:06.307Z,97117.66
2022-10-29T18:48:43.030Z,97117.91
2022-10-29T18:51:14.192Z,97117.34
2022-10-29T18:53:45.065Z,97107.19
2022-10-29T18:56:20.367Z,97112.97
2022-10-29T18:58:51.012Z,97107.09
2022-10-29T19:01:26.725Z,97100.41
2022-10-29T19:04:02.954Z,97102.50
2022-10-29T19:06:37.289Z,97105.38
2022-10-29T19:09:14.071Z,97108.25
2022-10-29T19:11:43.791Z,97105.03
2022-10-29T19:14:16.852Z,97110.00
2022-10-29T19:16:53.805Z,97107.59
2022-10-29T19:19:24.531Z,97109.66
2022-10-29T19:22:00.934Z,97112.31
2022-10-29T19:24:43.488Z,97110.72
2022-10-29T19:27:18.443Z,97113.38
2022-10-29T19:29:48.945Z,97111.75
2022-10-29T19:32:23.361Z,97117.25
2022-10-29T19:34:53.270Z,97110.38
2022-10-29T19:37:29.244Z,97114.88
2022-10-29T19:40:00.445Z,97113.25
2022-10-29T19:42:34.392Z,97109.78
2022-10-29T19:45:07.894Z,97112.66
2022-10-29T19:47:57.148Z,97109.44
2022-10-29T19:50:29.528Z,97111.28
2022-10-29T19:52:59.722Z,97115.00
2022-10-29T19:55:38.202Z,97118.94
2022-10-29T19:58:15.828Z,97110.97
2022-10-29T20:00:59.418Z,97113.63
2022-10-29T20:03:33.291Z,97113.63
2022-10-29T20:06:10.268Z,97119.72
2022-10-29T20:08:45.487Z,97109.31
2022-10-29T20:11:19.113Z,97111.78
2022-10-29T20:13:56.957Z,97108.31
2022-10-29T20:16:28.063Z,97114.41
2022-10-29T20:19:02.714Z,97109.13
2022-10-29T20:21:33.942Z,97109.91
2022-10-29T20:24:12.764Z,97112.56
2022-10-29T20:26:43.253Z,97103.81
2022-10-29T20:29:17.069Z,97105.06
2022-10-29T20:31:56.892Z,97114.63
2022-10-29T20:34:48.519Z,97105.06
2022-10-29T20:37:20.407Z,97112.44
2022-10-29T20:39:53.203Z,97105.50
2022-10-29T20:42:20.935Z,97105.50
2022-10-29T20:44:48.472Z,97109.22
2022-10-29T20:47:16.024Z,97116.34
2022-10-29T20:49:44.936Z,97106.00
2022-10-29T20:52:12.424Z,97108.06
2022-10-29T20:54:39.944Z,97111.75
2022-10-29T20:57:07.503Z,97114.63
2022-10-29T20:59:35.060Z,97109.34
2022-10-29T21:02:02.727Z,97112.22
2022-10-29T21:04:30.421Z,97110.59
2022-10-29T21:06:59.275Z,97114.28
2022-10-29T21:09:26.780Z,97109.47
2022-10-29T21:11:54.348Z,97112.34
2022-10-29T21:14:23.419Z,97115.22
2022-10-29T21:16:51.006Z,97113.59
2022-10-29T21:19:18.695Z,97106.69
2022-10-29T21:21:46.236Z,97107.72
2022-10-29T21:24:15.135Z,97111.66
2022-10-29T21:26:42.682Z,97109.22
2022-10-29T21:29:10.269Z,97111.31
2022-10-29T21:31:37.815Z,97101.19
2022-10-29T21:34:05.386Z,97108.28
2022-10-29T21:36:32.962Z,97105.31
2022-10-29T21:39:00.493Z,97106.59
2022-10-29T21:41:29.404Z,97107.84
2022-10-29T21:43:56.911Z,97104.59
2022-10-29T21:46:24.440Z,97106.69
2022-10-29T21:48:51.956Z,97110.38
2022-10-29T21:51:19.505Z,97103.94
2022-10-29T21:53:47.035Z,97104.97
2022-10-29T21:56:16.039Z,97107.47
2022-10-29T21:58:45.137Z,97097.59
2022-10-29T22:01:14.660Z,97105.78
2022-10-29T22:03:44.578Z,97106.22
2022-10-29T22:06:13.888Z,97113.56
2022-10-29T22:08:42.198Z,97108.75
2022-10-29T22:11:10.451Z,97106.53
2022-10-29T22:13:38.099Z,97103.78
2022-10-29T22:16:08.675Z,97103.19
2022-10-29T22:18:36.752Z,97105.84
2022-10-29T22:21:09.702Z,97103.66
2022-10-29T22:23:38.160Z,97098.78
2022-10-29T22:26:05.868Z,97106.13
2022-10-29T22:28:33.416Z,97100.25
2022-10-29T22:31:02.046Z,97094.38
2022-10-29T22:33:31.715Z,97098.56
2022-10-29T22:36:05.589Z,97093.69
2022-10-29T22:38:33.129Z,97094.97
2022-10-29T22:41:04.733Z,97085.63
2022-10-29T22:43:32.402Z,97094.84
2022-10-29T22:45:59.957Z,97090.56
2022-10-29T22:48:27.650Z,97086.53
2022-10-29T22:51:03.068Z,97096.75
2022-10-29T22:53:30.925Z,97094.78
2022-10-29T22:55:58.661Z,97095.25
2022-10-29T22:58:26.260Z,97096.16
2022-10-29T23:01:02.223Z,97098.06
2022-10-29T23:03:29.957Z,97102.41
2022-10-29T23:05:58.357Z,97105.34
2022-10-29T23:08:27.730Z,97106.03
2022-10-29T23:10:55.480Z,97103.84
2022-10-29T23:13:23.057Z,97108.53
2022-10-29T23:15:51.867Z,97108.41
2022-10-29T23:18:19.671Z,97103.56
2022-10-29T23:20:47.458Z,97102.97
2022-10-29T23:23:15.603Z,97105.03
2022-10-29T23:25:44.476Z,97099.41
2022-10-29T23:28:12.020Z,97090.47
2022-10-29T23:30:39.521Z,97094.38
2022-10-29T23:33:07.000Z,97091.13
2022-10-29T23:35:35.432Z,97093.41
2022-10-29T23:38:02.999Z,97091.81
2022-10-29T23:40:30.665Z,97096.50
2022-10-29T23:42:59.546Z,97094.91
2022-10-29T23:45:27.183Z,97094.53
2022-10-29T23:47:54.913Z,97089.66
2022-10-29T23:50:22.743Z,97092.16
2022-10-29T23:52:50.320Z,97095.25
2022-10-29T23:55:17.846Z,97085.34
2022-10-29T23:57:45.356Z,97084.16
